Time;durP1;ratioP1;P1;durP2;ratioP2;P2;SDS_P1;SDS_P2;PMS_P1;PMS_P2;Temp;Humidity;BMP_temperature;BMP_pressure;BME280_temperature;BME280_humidity;BME280_pressure;Samples;Min_cycle;Max_cycle;Signal;HPM_P1;HPM_P2
2022/07/29 00:00:44;;;;;;;4.78;1.60;;;;;;;17.78;63.67;100546.66;4931789;29;20079;-81
2022/07/29 00:03:47;;;;;;;7.82;2.65;;;;;;;17.83;63.01;100540.00;4931569;29;20613;-80
2022/07/29 00:06:50;;;;;;;4.32;1.40;;;;;;;17.81;63.16;100541.97;4932062;29;20054;-80
2022/07/29 00:09:57;;;;;;;5.03;1.65;;;;;;;17.96;62.33;100544.28;4931206;29;20123;-80
2022/07/29 00:13:00;;;;;;;3.30;1.25;;;;;;;18.07;61.96;100531.03;4919870;29;20055;-80
2022/07/29 00:16:03;;;;;;;7.00;1.15;;;;;;;17.86;62.92;100538.91;4930971;29;20204;-80
2022/07/29 00:19:06;;;;;;;6.10;1.30;;;;;;;18.07;62.67;100531.03;4931183;29;20082;-81
2022/07/29 00:22:10;;;;;;;3.75;1.58;;;;;;;18.04;62.27;100529.47;4931283;29;20050;-80
2022/07/29 00:25:13;;;;;;;4.80;1.20;;;;;;;18.05;62.23;100527.66;4931505;29;20054;-81
2022/07/29 00:28:19;;;;;;;5.35;1.50;;;;;;;18.18;61.81;100525.66;4931188;29;20127;-81
2022/07/29 00:31:23;;;;;;;5.88;1.42;;;;;;;17.96;62.78;100533.69;4931057;29;20050;-81
2022/07/29 00:37:49;;;;;;;4.90;1.42;;;;;;;17.77;64.32;100516.72;4907855;29;20051;-81
2022/07/29 00:40:52;;;;;;;3.08;1.17;;;;;;;17.96;63.31;100533.69;4912148;29;20103;-81
2022/07/29 00:43:55;;;;;;;3.88;1.20;;;;;;;17.98;63.11;100527.31;4912042;29;20123;-81
2022/07/29 00:47:01;;;;;;;5.82;1.48;;;;;;;17.88;62.89;100527.25;4911578;29;20047;-81
2022/07/29 00:50:07;;;;;;;4.40;1.20;;;;;;;17.60;62.58;100530.44;4911826;29;20104;-81
2022/07/29 00:53:11;;;;;;;6.68;1.25;;;;;;;18.01;61.49;100531.53;4911909;29;20513;-81
2022/07/29 00:56:15;;;;;;;3.83;1.45;;;;;;;18.00;62.29;100517.47;4912159;29;20104;-81
2022/07/29 00:59:19;;;;;;;5.85;1.35;;;;;;;17.99;62.57;100529.00;4912427;29;20098;-80
2022/07/29 01:02:22;;;;;;;5.40;1.52;;;;;;;18.10;62.38;100520.19;4912554;29;20107;-81
2022/07/29 01:05:27;;;;;;;6.35;1.40;;;;;;;17.92;63.11;100524.34;4916534;29;20480;-81
2022/07/29 01:08:32;;;;;;;7.88;1.30;;;;;;;17.91;62.48;100525.31;4934535;29;20059;-82
2022/07/29 01:11:36;;;;;;;3.55;1.17;;;;;;;17.81;58.58;100519.97;4922793;29;20046;-82
2022/07/29 01:14:43;;;;;;;5.53;1.50;;;;;;;18.00;57.20;100508.69;4934167;29;20059;-83
2022/07/29 01:17:58;;;;;;;3.38;1.10;;;;;;;18.10;58.13;100504.31;4934257;29;20082;-83
2022/07/29 01:21:26;;;;;;;4.18;1.30;;;;;;;18.00;57.32;100492.81;4934227;29;20414;-81
2022/07/29 01:24:55;;;;;;;5.13;1.27;;;;;;;17.86;56.05;100497.44;4934638;29;20062;-81
2022/07/29 01:28:52;;;;;;;4.97;1.25;;;;;;;17.96;56.35;100494.03;4933943;29;20056;-81
2022/07/29 01:32:02;;;;;;;6.88;1.40;;;;;;;17.72;60.94;100484.50;4859759;29;20053;-81
2022/07/29 01:35:18;;;;;;;5.97;1.30;;;;;;;17.57;62.79;100486.59;4933845;29;20038;-81
2022/07/29 01:38:25;;;;;;;6.00;1.77;;;;;;;17.49;63.48;100483.75;4933596;29;20054;-81
2022/07/29 01:41:32;;;;;;;6.18;1.33;;;;;;;17.63;62.43;100483.44;4934250;29;20058;-80
2022/07/29 01:44:45;;;;;;;3.63;1.35;;;;;;;17.37;64.05;100484.75;4933655;29;20050;-81
2022/07/29 01:48:07;;;;;;;4.10;1.45;;;;;;;17.38;64.23;100487.25;4933036;29;20111;-81
2022/07/29 01:51:14;;;;;;;5.35;1.55;;;;;;;17.33;61.77;100484.16;4934050;29;20416;-81
2022/07/29 01:54:34;;;;;;;6.88;1.60;;;;;;;17.36;61.92;100473.34;4934222;29;20628;-80
2022/07/29 01:57:40;;;;;;;14.63;1.88;;;;;;;17.43;63.06;100473.69;4933697;29;20054;-81
2022/07/29 02:00:46;;;;;;;7.30;1.83;;;;;;;16.99;64.57;100474.63;4933975;29;20527;-81
2022/07/29 02:03:52;;;;;;;3.75;1.23;;;;;;;16.92;65.43;100480.41;4933290;29;20050;-81
2022/07/29 02:07:04;;;;;;;4.63;1.35;;;;;;;17.03;65.19;100478.69;4934071;29;20041;-82
2022/07/29 02:10:10;;;;;;;6.85;1.63;;;;;;;16.93;65.47;100482.06;4933715;29;20516;-82
2022/07/29 02:13:16;;;;;;;12.98;2.45;;;;;;;16.63;66.59;100476.56;4934118;29;20473;-82
2022/07/29 02:16:22;;;;;;;10.25;1.77;;;;;;;16.65;66.39;100474.63;4933917;29;20066;-81
2022/07/29 02:19:27;;;;;;;6.03;1.60;;;;;;;16.44;67.19;100463.94;4914335;29;20074;-81
2022/07/29 02:22:33;;;;;;;6.03;1.50;;;;;;;16.64;66.87;100460.59;4903062;29;20054;-81
2022/07/29 02:25:38;;;;;;;5.97;1.38;;;;;;;16.73;65.55;100464.31;4913529;29;20059;-81
2022/07/29 02:28:42;;;;;;;5.85;1.80;;;;;;;16.78;66.00;100463.97;4902419;29;20104;-81
2022/07/29 02:31:49;;;;;;;8.02;1.73;;;;;;;16.40;67.53;100463.34;4922021;29;20042;-81
2022/07/29 02:34:54;;;;;;;3.95;1.30;;;;;;;16.27;68.03;100462.59;4933501;29;20427;-81
2022/07/29 02:41:27;;;;;;;6.37;1.63;;;;;;;16.22;68.86;100465.59;4932904;29;20414;-80
2022/07/29 02:44:35;;;;;;;5.50;1.58;;;;;;;16.37;68.07;100468.88;4932948;29;20068;-81
2022/07/29 02:47:43;;;;;;;5.78;1.33;;;;;;;16.48;64.57;100470.66;4932553;29;20577;-81
2022/07/29 02:50:54;;;;;;;8.98;1.80;;;;;;;16.46;63.81;100468.16;4932734;29;20079;-80
2022/07/29 02:54:04;;;;;;;7.95;1.65;;;;;;;16.24;67.57;100468.97;4920992;29;20090;-81
2022/07/29 02:57:18;;;;;;;5.53;1.90;;;;;;;15.95;68.95;100467.69;4932931;29;20110;-80
2022/07/29 03:00:27;;;;;;;15.80;2.85;;;;;;;15.92;69.11;100460.00;4932478;29;20119;-81
2022/07/29 03:03:37;;;;;;;8.05;1.95;;;;;;;15.77;70.09;100464.66;4921065;29;20082;-81
2022/07/29 03:06:43;;;;;;;6.00;1.42;;;;;;;15.68;70.78;100466.19;4921434;29;20413;-81
2022/07/29 03:09:46;;;;;;;4.07;1.40;;;;;;;15.66;70.98;100467.22;4932290;29;20055;-81
2022/07/29 03:12:50;;;;;;;6.43;1.75;;;;;;;15.57;71.28;100477.50;4932752;29;20067;-82
2022/07/29 03:15:57;;;;;;;4.30;1.42;;;;;;;15.68;71.03;100475.91;4931807;29;20118;-80
2022/07/29 03:19:02;;;;;;;9.63;2.13;;;;;;;15.95;70.26;100479.13;4920342;29;20420;-80
2022/07/29 03:22:06;;;;;;;8.18;1.70;;;;;;;16.07;69.53;100476.47;4931928;29;20046;-80
2022/07/29 03:25:10;;;;;;;5.07;1.33;;;;;;;15.91;68.97;100474.16;4932619;29;20063;-80
2022/07/29 03:28:14;;;;;;;5.80;1.60;;;;;;;15.77;69.50;100470.78;4931477;29;20062;-81
2022/07/29 03:31:17;;;;;;;7.22;1.90;;;;;;;15.48;70.89;100465.00;4932017;29;20046;-81
2022/07/29 03:34:21;;;;;;;5.75;1.50;;;;;;;15.68;70.33;100466.19;4932329;29;20054;-81
2022/07/29 03:37:25;;;;;;;6.97;1.95;;;;;;;15.90;67.73;100470.69;4931839;29;20119;-80
2022/07/29 03:40:43;;;;;;;5.07;1.60;;;;;;;15.93;68.16;100474.91;4920250;29;20046;-81
2022/07/29 03:43:49;;;;;;;7.05;1.38;;;;;;;15.88;68.19;100469.97;4917706;29;20051;-81
2022/07/29 03:46:55;;;;;;;7.72;1.73;;;;;;;15.49;70.54;100471.09;4931370;29;20102;-81
2022/07/29 03:50:06;;;;;;;5.53;2.20;;;;;;;15.31;71.28;100470.66;4930326;29;20152;-80
2022/07/29 03:53:09;;;;;;;5.50;1.98;;;;;;;15.22;72.01;100476.59;4930769;29;20114;-80
2022/07/29 03:56:16;;;;;;;5.97;1.27;;;;;;;15.13;72.36;100469.38;4930159;29;20054;-80
2022/07/29 03:59:21;;;;;;;4.20;1.80;;;;;;;15.36;71.71;100481.72;4929748;29;20047;-80
2022/07/29 04:02:25;;;;;;;6.60;1.92;;;;;;;15.17;72.67;100474.28;4929862;29;20108;-81
2022/07/29 04:05:29;;;;;;;8.68;1.50;;;;;;;15.07;73.46;100481.19;4930419;29;20054;-81
2022/07/29 04:08:35;;;;;;;7.18;1.73;;;;;;;15.02;73.38;100489.41;4930618;29;20050;-80
2022/07/29 04:11:40;;;;;;;9.45;2.00;;;;;;;15.15;73.10;100483.25;4925635;29;20360;-80
2022/07/29 04:14:46;;;;;;;3.35;1.33;;;;;;;15.37;72.20;100478.09;4923087;29;20118;-80
2022/07/29 04:17:51;;;;;;;7.15;1.95;;;;;;;15.44;70.83;100489.88;4930155;29;20444;-80
2022/07/29 04:20:58;;;;;;;9.73;1.90;;;;;;;15.07;73.03;100494.34;4918005;29;20695;-80
2022/07/29 04:24:02;;;;;;;6.60;2.08;;;;;;;15.19;73.02;100489.97;4925188;29;20130;-81
2022/07/29 04:27:06;;;;;;;6.63;1.75;;;;;;;15.12;73.35;100486.94;4929614;29;20090;-81
2022/07/29 04:30:10;;;;;;;4.20;1.60;;;;;;;15.02;73.88;100497.28;4919523;29;20590;-81
2022/07/29 04:33:14;;;;;;;7.72;1.92;;;;;;;15.01;74.35;100498.25;4910650;29;20075;-81
2022/07/29 04:36:18;;;;;;;4.57;1.67;;;;;;;14.88;74.89;100494.81;4911266;29;20075;-81
2022/07/29 04:39:21;;;;;;;7.07;1.55;;;;;;;15.09;74.26;100495.06;4911716;29;20427;-81
2022/07/29 04:42:25;;;;;;;4.47;1.55;;;;;;;15.03;72.90;100500.78;4914634;29;20465;-81
2022/07/29 04:45:29;;;;;;;5.28;1.42;;;;;;;15.23;71.82;100496.72;4915315;29;20055;-80
2022/07/29 04:48:33;;;;;;;7.45;2.03;;;;;;;15.16;72.79;100498.97;4914583;29;20095;-82
2022/07/29 04:51:37;;;;;;;7.13;1.70;;;;;;;15.10;73.78;100502.88;4913398;29;20078;-82
2022/07/29 04:54:41;;;;;;;7.63;2.50;;;;;;;15.11;74.33;100509.81;4917113;29;20189;-82
2022/07/29 04:57:45;;;;;;;4.28;1.60;;;;;;;15.38;73.58;100505.28;4911465;29;20096;-82
2022/07/29 05:00:49;;;;;;;5.45;1.80;;;;;;;15.48;73.66;100503.69;4932545;29;20058;-82
2022/07/29 05:03:54;;;;;;;6.07;1.80;;;;;;;15.44;73.30;100503.03;4921819;29;20122;-83
2022/07/29 05:06:57;;;;;;;7.38;1.60;;;;;;;15.28;74.24;100513.88;4924902;29;20153;-84
2022/07/29 05:10:01;;;;;;;4.85;1.80;;;;;;;15.51;73.15;100504.31;4922775;29;20104;-83
2022/07/29 05:13:06;;;;;;;6.82;2.08;;;;;;;15.65;71.92;100508.56;4925312;29;20509;-82
2022/07/29 05:16:11;;;;;;;4.57;1.50;;;;;;;15.82;70.89;100509.97;4914037;29;20144;-84
2022/07/29 05:19:14;;;;;;;3.35;1.45;;;;;;;15.84;70.12;100507.22;4912007;29;20096;-80
2022/07/29 05:22:19;;;;;;;5.15;1.90;;;;;;;15.84;70.45;100515.97;4909931;29;20051;-80
2022/07/29 05:25:27;;;;;;;10.60;2.15;;;;;;;15.93;70.66;100504.75;4911799;29;20051;-82
2022/07/29 05:28:34;;;;;;;3.88;1.50;;;;;;;16.04;70.22;100512.69;4914751;29;20462;-84
2022/07/29 05:31:37;;;;;;;4.53;1.35;;;;;;;16.22;69.85;100513.09;4905611;29;20058;-83
2022/07/29 05:34:43;;;;;;;9.25;2.05;;;;;;;16.42;69.22;100508.91;4912983;29;20127;-83
2022/07/29 05:37:47;;;;;;;9.63;2.28;;;;;;;16.58;68.83;100513.84;4911279;29;20051;-69
2022/07/29 05:40:50;;;;;;;6.80;1.65;;;;;;;16.71;68.78;100514.56;4915499;29;20505;-67
2022/07/29 05:43:53;;;;;;;5.93;1.45;;;;;;;16.73;69.03;100515.31;4915485;29;20058;-69
2022/07/29 05:46:57;;;;;;;6.05;1.63;;;;;;;16.86;68.34;100514.38;4915175;29;20083;-68
2022/07/29 05:50:00;;;;;;;6.00;1.77;;;;;;;16.87;68.41;100522.16;4914746;29;20520;-69
2022/07/29 05:53:03;;;;;;;7.03;2.08;;;;;;;17.05;67.84;100521.69;4912166;29;20119;-69
2022/07/29 05:56:07;;;;;;;4.32;1.85;;;;;;;17.14;67.90;100521.78;4911583;29;20051;-70
2022/07/29 05:59:10;;;;;;;13.18;2.38;;;;;;;17.11;67.76;100527.31;4914102;29;20126;-70
2022/07/29 06:02:14;;;;;;;8.63;2.15;;;;;;;17.26;67.19;100530.56;4914509;29;20092;-69
2022/07/29 06:05:17;;;;;;;4.80;1.65;;;;;;;17.48;66.69;100534.09;4914039;29;20035;-69
2022/07/29 06:08:20;;;;;;;7.47;1.60;;;;;;;17.59;66.22;100536.72;4906524;29;20544;-69
2022/07/29 06:11:24;;;;;;;5.57;1.98;;;;;;;17.74;66.04;100538.13;4911170;29;20542;-69
2022/07/29 06:14:28;;;;;;;5.05;1.40;;;;;;;17.99;64.86;100528.16;4921841;29;20134;-69
2022/07/29 06:17:31;;;;;;;6.45;1.80;;;;;;;18.11;63.96;100532.44;4932873;29;20055;-68
2022/07/29 06:20:35;;;;;;;16.15;1.77;;;;;;;18.17;64.00;100531.91;4931694;29;20528;-69
2022/07/29 06:23:39;;;;;;;6.57;1.40;;;;;;;18.17;62.95;100525.78;4932667;29;20298;-68
2022/07/29 06:26:43;;;;;;;11.48;2.13;;;;;;;18.34;61.66;100533.13;4932063;29;20560;-69
2022/07/29 06:29:46;;;;;;;7.03;1.98;;;;;;;18.44;60.78;100527.91;4932002;29;20046;-69
2022/07/29 06:32:49;;;;;;;9.10;2.10;;;;;;;18.53;60.46;100537.69;4932200;29;20086;-70
2022/07/29 06:35:52;;;;;;;8.63;2.50;;;;;;;18.68;59.18;100530.25;4931990;29;20053;-71
2022/07/29 06:38:56;;;;;;;6.25;1.70;;;;;;;18.85;58.06;100529.66;4932834;29;20142;-68
2022/07/29 06:41:59;;;;;;;11.35;2.00;;;;;;;19.01;57.61;100531.81;4932748;29;20043;-69
2022/07/29 06:45:03;;;;;;;10.13;1.90;;;;;;;19.13;57.21;100529.91;4932077;29;20139;-71
2022/07/29 06:48:07;;;;;;;9.07;1.95;;;;;;;19.13;56.89;100525.44;4931248;29;20049;-72
2022/07/29 06:51:11;;;;;;;7.30;1.73;;;;;;;19.21;56.69;100528.25;4928537;29;20043;-70
2022/07/29 06:54:14;;;;;;;9.65;1.83;;;;;;;19.28;57.05;100529.38;4923526;29;20046;-72
2022/07/29 06:57:18;;;;;;;9.38;1.63;;;;;;;19.37;56.79;100527.75;4916133;29;20062;-71
2022/07/29 07:00:21;;;;;;;6.93;1.90;;;;;;;19.45;55.83;100516.44;4913222;29;20051;-72
2022/07/29 07:03:25;;;;;;;6.28;1.80;;;;;;;19.50;55.83;100530.13;4928443;29;20078;-70
2022/07/29 07:06:55;;;;;;;5.60;1.55;;;;;;;19.63;55.95;100528.03;4929851;29;20099;-73
2022/07/29 07:10:39;;;;;;;3.95;1.73;;;;;;;19.81;54.98;100530.84;4920191;29;20071;-70
2022/07/29 07:13:48;;;;;;;9.25;2.17;;;;;;;19.94;54.64;100536.75;4910856;29;20087;-72
2022/07/29 07:16:51;;;;;;;8.38;1.90;;;;;;;20.00;53.65;100540.63;4926016;29;20689;-73
2022/07/29 07:19:56;;;;;;;8.20;1.92;;;;;;;19.94;53.17;100539.41;4931744;29;20573;-72
2022/07/29 07:23:00;;;;;;;6.20;2.00;;;;;;;19.95;53.29;100532.28;4932954;29;20055;-72
2022/07/29 07:26:05;;;;;;;8.95;3.67;;;;;;;20.13;55.08;100529.72;4931969;29;20051;-71
2022/07/29 07:29:09;;;;;;;10.90;2.42;;;;;;;20.21;53.03;100524.56;4930841;29;20568;-72
2022/07/29 07:32:13;;;;;;;10.35;2.55;;;;;;;20.12;52.43;100534.19;4922681;29;20047;-66
2022/07/29 07:35:17;;;;;;;13.40;2.00;;;;;;;20.18;52.57;100532.81;4911142;29;20059;-67
2022/07/29 07:38:20;;;;;;;16.33;2.20;;;;;;;20.27;53.12;100531.94;4911735;29;20553;-74
2022/07/29 07:41:23;;;;;;;5.30;2.50;;;;;;;20.39;52.78;100529.97;4911756;29;20095;-67
2022/07/29 07:44:26;;;;;;;5.18;1.92;;;;;;;20.47;52.17;100522.13;4917281;29;20070;-67
2022/07/29 07:47:30;;;;;;;8.95;1.98;;;;;;;20.41;51.58;100522.69;4930205;29;20565;-76
2022/07/29 07:50:34;;;;;;;7.05;2.10;;;;;;;20.48;52.30;100518.47;4930867;29;20102;-75
2022/07/29 07:53:38;;;;;;;5.05;1.98;;;;;;;20.62;52.32;100526.03;4931780;29;20078;-68
2022/07/29 07:56:41;;;;;;;4.72;1.80;;;;;;;20.65;51.94;100531.03;4932338;29;20082;-66
2022/07/29 07:59:45;;;;;;;9.77;2.03;;;;;;;20.67;51.81;100537.03;4931801;29;20539;-69
2022/07/29 08:02:49;;;;;;;12.55;2.13;;;;;;;20.70;51.30;100532.41;4932386;29;20051;-69
2022/07/29 08:05:54;;;;;;;7.32;1.92;;;;;;;20.78;51.67;100529.88;4932066;29;20083;-69
2022/07/29 08:08:57;;;;;;;10.10;1.95;;;;;;;20.98;50.99;100531.47;4912368;29;20080;-69
2022/07/29 08:12:03;;;;;;;5.97;2.33;;;;;;;21.08;51.30;100532.25;4912718;29;20043;-67
2022/07/29 08:15:07;;;;;;;5.85;2.20;;;;;;;21.09;50.13;100539.25;4905025;29;20059;-66
2022/07/29 08:18:10;;;;;;;6.72;1.90;;;;;;;21.22;49.93;100528.28;4912722;29;20046;-67
2022/07/29 08:21:14;;;;;;;9.25;1.80;;;;;;;21.33;50.03;100530.69;4912877;29;20043;-66
2022/07/29 08:27:39;;;;;;;6.15;1.70;;;;;;;21.32;49.42;100528.22;4893810;29;20039;-69
2022/07/29 08:30:43;;;;;;;7.38;2.25;;;;;;;21.33;49.49;100533.38;4903239;29;20075;-67
2022/07/29 08:33:46;;;;;;;9.38;1.55;;;;;;;21.24;49.22;100530.75;4903574;29;20047;-67
2022/07/29 08:36:49;;;;;;;9.82;1.80;;;;;;;21.25;49.45;100532.44;4896074;29;20048;-68
2022/07/29 08:39:53;;;;;;;6.40;2.03;;;;;;;21.28;49.83;100540.97;4891313;29;20108;-67
2022/07/29 08:42:56;;;;;;;10.50;2.45;;;;;;;21.46;49.84;100540.19;4899936;29;20510;-66
2022/07/29 08:46:00;;;;;;;11.10;2.00;;;;;;;21.55;48.51;100526.81;4900114;29;20505;-66
2022/07/29 08:49:03;;;;;;;4.70;1.95;;;;;;;21.55;48.10;100528.63;4908370;29;20062;-68
2022/07/29 08:52:09;;;;;;;8.57;2.10;;;;;;;21.59;47.49;100525.50;4898154;29;20086;-69
2022/07/29 08:55:15;;;;;;;6.22;2.15;;;;;;;21.56;48.40;100520.50;4909833;29;20050;-69
2022/07/29 08:58:21;;;;;;;11.75;2.40;;;;;;;21.63;48.38;100526.03;4911250;29;20579;-71
2022/07/29 09:01:30;;;;;;;12.02;2.33;;;;;;;21.67;48.27;100521.28;4911773;29;20107;-69
2022/07/29 09:04:35;;;;;;;7.72;1.70;;;;;;;21.69;48.69;100520.13;4905073;29;20100;-69
2022/07/29 09:07:39;;;;;;;8.52;1.92;;;;;;;21.72;48.13;100513.66;4905409;29;20109;-71
2022/07/29 09:11:08;;;;;;;9.50;2.05;;;;;;;21.86;48.77;100513.13;4906115;29;20047;-72
2022/07/29 09:14:13;;;;;;;5.50;2.90;;;;;;;21.93;46.83;100502.69;4913151;29;20083;-72
2022/07/29 09:17:17;;;;;;;12.25;4.22;;;;;;;22.00;47.26;100501.09;4931168;29;20464;-76
2022/07/29 09:20:22;;;;;;;9.63;2.33;;;;;;;22.26;46.47;100491.31;4931049;29;20042;-73
2022/07/29 09:23:26;;;;;;;16.95;2.90;;;;;;;22.32;45.93;100497.84;4930576;29;20127;-73
2022/07/29 09:26:31;;;;;;;8.75;2.42;;;;;;;22.50;46.02;100495.13;4922284;29;20521;-70
2022/07/29 09:29:37;;;;;;;7.10;2.40;;;;;;;22.55;45.61;100498.13;4916955;29;20095;-73
2022/07/29 09:32:58;;;;;;;8.07;1.90;;;;;;;22.72;44.74;100477.75;4916155;29;20059;-71
2022/07/29 09:36:09;;;;;;;11.90;2.25;;;;;;;22.85;45.24;100496.78;4915420;29;20418;-70
2022/07/29 09:39:14;;;;;;;9.68;2.92;;;;;;;23.06;44.32;100492.88;4915271;29;20418;-72
2022/07/29 09:42:28;;;;;;;9.52;2.55;;;;;;;23.13;43.06;100488.56;4933257;29;20074;-71
2022/07/29 09:45:33;;;;;;;8.55;2.60;;;;;;;23.21;43.90;100477.94;4934264;29;20059;-72
2022/07/29 09:48:36;;;;;;;6.20;2.10;;;;;;;23.35;43.51;100476.44;4934003;29;20054;-72
2022/07/29 09:51:41;;;;;;;5.95;1.90;;;;;;;23.61;43.05;100468.31;4922509;29;20106;-76
2022/07/29 09:54:47;;;;;;;6.40;2.40;;;;;;;23.71;43.47;100470.84;4934100;29;20429;-68
2022/07/29 09:57:51;;;;;;;5.50;2.45;;;;;;;23.79;42.28;100478.84;4934439;29;20062;-70
2022/07/29 10:00:56;;;;;;;7.03;2.25;;;;;;;23.85;41.23;100479.03;4934341;29;20106;-71
2022/07/29 10:04:00;;;;;;;10.50;2.40;;;;;;;23.82;41.46;100476.69;4933726;29;20042;-71
2022/07/29 10:07:04;;;;;;;13.18;3.55;;;;;;;23.83;42.82;100475.66;4933731;29;20046;-72
2022/07/29 10:10:08;;;;;;;6.13;2.65;;;;;;;23.89;41.69;100475.00;4932728;29;20058;-74
2022/07/29 10:13:14;;;;;;;6.22;2.67;;;;;;;23.94;40.73;100461.16;4933774;29;20046;-71
2022/07/29 10:16:17;;;;;;;11.15;2.80;;;;;;;24.05;40.90;100470.66;4932532;29;20160;-71
2022/07/29 10:19:21;;;;;;;5.82;2.38;;;;;;;24.13;40.81;100466.16;4934483;29;20077;-72
2022/07/29 10:22:24;;;;;;;5.28;2.15;;;;;;;24.08;41.98;100460.47;4934123;29;20136;-73
2022/07/29 10:25:27;;;;;;;7.45;2.47;;;;;;;24.11;41.17;100460.13;4933385;29;20062;-72
2022/07/29 10:28:31;;;;;;;7.80;2.13;;;;;;;24.14;41.08;100461.63;4933610;29;20051;-73
2022/07/29 10:31:47;;;;;;;6.43;2.50;;;;;;;24.10;42.28;100460.31;4933727;29;20418;-71
2022/07/29 10:35:28;;;;;;;4.13;2.33;;;;;;;24.13;42.11;100457.31;4933167;29;20136;-70
2022/07/29 10:38:48;;;;;;;8.43;2.75;;;;;;;24.07;41.37;100455.31;4931718;29;20050;-73
2022/07/29 10:42:04;;;;;;;9.68;2.33;;;;;;;24.02;42.77;100457.63;4914957;29;20051;-71
2022/07/29 10:45:07;;;;;;;3.67;1.73;;;;;;;24.01;42.37;100453.31;4914360;29;20039;-74
2022/07/29 10:48:14;;;;;;;6.93;2.20;;;;;;;24.05;42.96;100457.31;4914565;29;20131;-71
2022/07/29 10:51:18;;;;;;;6.65;2.30;;;;;;;24.22;42.60;100458.94;4914509;29;20086;-70
2022/07/29 10:54:44;;;;;;;9.40;2.55;;;;;;;24.24;41.77;100440.91;4914055;29;20099;-70
2022/07/29 10:58:10;;;;;;;6.68;2.00;;;;;;;24.45;41.79;100439.53;4916199;29;20047;-72
2022/07/29 11:01:31;;;;;;;5.13;2.38;;;;;;;24.38;41.46;100442.03;4920982;29;20044;-71
2022/07/29 11:04:43;;;;;;;7.85;2.30;;;;;;;24.53;41.60;100439.50;4914734;29;20051;-72
2022/07/29 11:08:23;;;;;;;7.57;2.30;;;;;;;24.87;40.99;100428.50;4924124;29;20099;-72
2022/07/29 11:11:26;;;;;;;6.30;2.35;;;;;;;25.12;40.04;100426.53;4866001;29;20045;-74
2022/07/29 11:14:51;;;;;;;4.05;1.90;;;;;;;25.25;40.94;100426.78;4926580;29;20058;-74
2022/07/29 11:17:56;;;;;;;7.30;2.20;;;;;;;25.43;40.44;100414.91;4923496;29;20133;-73
2022/07/29 11:21:01;;;;;;;4.35;1.67;;;;;;;25.46;39.55;100419.91;4925012;29;20039;-72
2022/07/29 11:24:34;;;;;;;5.45;2.13;;;;;;;25.43;40.18;100417.59;4915629;29;20055;-72
2022/07/29 11:27:39;;;;;;;;;;;;;;;25.72;40.70;100414.19;4914114;29;20092;-71
2022/07/29 11:30:53;;;;;;;4.93;2.10;;;;;;;25.84;39.63;100409.25;4913836;29;20297;-78
2022/07/29 11:33:57;;;;;;;8.55;2.15;;;;;;;25.92;39.31;100414.53;4913871;29;20179;-72
2022/07/29 11:37:07;;;;;;;6.22;2.47;;;;;;;25.77;39.60;100416.31;4913542;29;20054;-72
2022/07/29 11:40:12;;;;;;;4.95;2.03;;;;;;;25.60;39.16;100415.63;4913131;29;20054;-73
2022/07/29 11:43:54;;;;;;;3.70;1.92;;;;;;;25.53;39.89;100407.50;4906946;29;20059;-70
2022/07/29 11:46:58;;;;;;;3.17;1.70;;;;;;;25.44;40.79;100406.72;4913676;29;20047;-71
2022/07/29 11:50:05;;;;;;;3.95;2.15;;;;;;;25.57;40.55;100405.28;4923834;29;20050;-72
2022/07/29 11:53:13;;;;;;;8.68;2.22;;;;;;;25.79;40.95;100404.41;4932479;29;20050;-76
2022/07/29 11:56:20;;;;;;;5.43;1.88;;;;;;;25.88;40.91;100399.84;4920638;29;20239;-71
2022/07/29 11:59:25;;;;;;;6.38;1.80;;;;;;;25.98;40.27;100405.75;4930686;29;20055;-76
2022/07/29 12:02:41;;;;;;;5.00;1.65;;;;;;;26.04;38.95;100405.03;4930411;29;20521;-74
2022/07/29 12:05:45;;;;;;;6.00;2.50;;;;;;;26.08;39.28;100398.28;4925147;29;20119;-74
2022/07/29 12:08:48;;;;;;;5.43;2.08;;;;;;;26.29;38.98;100392.19;4922088;29;20127;-73
2022/07/29 12:11:58;;;;;;;8.98;2.25;;;;;;;26.40;38.66;100397.06;4919905;29;20843;-75
2022/07/29 12:15:12;;;;;;;4.10;1.90;;;;;;;26.38;38.97;100393.72;4911742;29;20138;-75
2022/07/29 12:18:20;;;;;;;5.80;2.05;;;;;;;26.46;39.45;100392.81;4910119;29;20094;-74
2022/07/29 12:21:24;;;;;;;3.47;1.95;;;;;;;26.40;40.22;100388.19;4909882;29;20038;-83
2022/07/29 12:24:42;;;;;;;6.78;2.10;;;;;;;26.39;39.98;100390.06;4916274;29;20102;-75
2022/07/29 12:27:47;;;;;;;5.75;1.80;;;;;;;26.34;39.80;100379.03;4900017;29;20418;-77
2022/07/29 12:30:51;;;;;;;5.03;2.20;;;;;;;26.20;40.82;100378.06;4911155;29;20047;-69
2022/07/29 12:33:55;;;;;;;5.80;2.10;;;;;;;26.17;40.64;100375.75;4929264;29;20089;-68
2022/07/29 12:37:02;;;;;;;4.25;2.17;;;;;;;26.15;40.58;100367.03;4925752;29;20187;-76
2022/07/29 12:40:31;;;;;;;5.63;1.98;;;;;;;26.54;39.80;100365.91;4913969;29;20047;-71
2022/07/29 12:43:37;;;;;;;5.63;2.08;;;;;;;26.62;39.60;100368.50;4920441;29;20103;-80
2022/07/29 12:46:41;;;;;;;8.35;2.50;;;;;;;26.88;37.74;100367.13;4907683;29;20593;-77
2022/07/29 12:49:46;;;;;;;5.28;1.95;;;;;;;27.49;37.53;100354.09;4918401;29;20043;-70
2022/07/29 12:52:50;;;;;;;4.13;1.92;;;;;;;27.61;36.07;100357.06;4918027;29;20561;-71
2022/07/29 12:55:56;;;;;;;8.60;1.73;;;;;;;27.72;36.26;100348.44;4922492;29;20526;-71
2022/07/29 12:58:59;;;;;;;6.53;1.67;;;;;;;27.80;35.79;100344.84;4920769;29;20071;-68
2022/07/29 13:02:04;;;;;;;5.68;2.00;;;;;;;27.83;36.69;100343.63;4905325;29;20122;-69
2022/07/29 13:05:10;;;;;;;5.38;2.08;;;;;;;27.94;35.84;100341.19;4910774;29;20179;-71
2022/07/29 13:08:16;;;;;;;4.47;2.00;;;;;;;27.72;36.67;100348.44;4914722;29;20043;-72
2022/07/29 13:11:29;;;;;;;5.70;2.20;;;;;;;27.31;37.51;100349.22;4915129;29;20130;-68
2022/07/29 13:14:41;;;;;;;7.28;1.90;;;;;;;26.99;37.84;100350.50;4922061;29;20058;-70
2022/07/29 13:17:47;;;;;;;4.22;1.85;;;;;;;26.71;38.49;100361.19;4933709;29;20057;-72
2022/07/29 13:25:02;;;;;;;4.13;1.70;;;;;;;27.08;37.57;100346.69;4934085;29;20135;-70
2022/07/29 13:28:07;;;;;;;4.63;1.90;;;;;;;27.97;36.04;100351.53;4933814;29;20524;-75
2022/07/29 13:31:11;;;;;;;4.57;1.90;;;;;;;28.67;35.33;100340.69;4933315;29;20110;-69
2022/07/29 13:34:14;;;;;;;6.55;1.83;;;;;;;29.07;33.83;100335.41;4933367;29;20103;-69
2022/07/29 13:37:18;;;;;;;6.05;2.08;;;;;;;28.40;33.67;100345.16;4932828;29;20054;-76
2022/07/29 13:40:23;;;;;;;4.65;2.03;;;;;;;27.90;34.15;100344.47;4933450;29;20084;-86
2022/07/29 13:43:36;;;;;;;4.53;1.95;;;;;;;27.69;35.02;100345.34;4933213;29;20051;-87
2022/07/29 13:46:41;;;;;;;8.93;1.98;;;;;;;27.31;35.30;100351.03;4922931;29;20058;-79
2022/07/29 13:49:44;;;;;;;6.43;1.80;;;;;;;27.02;36.47;100350.13;4933047;29;20110;-80
2022/07/29 13:52:50;;;;;;;4.55;1.92;;;;;;;27.11;36.76;100356.19;4933447;29;20528;-78
2022/07/29 13:55:53;;;;;;;7.15;2.30;;;;;;;27.06;36.72;100367.53;4933241;29;20156;-77
2022/07/29 13:58:57;;;;;;;5.35;1.65;;;;;;;27.37;35.73;100393.22;4933036;29;20058;-71
2022/07/29 14:02:00;;;;;;;5.18;1.60;;;;;;;26.55;36.70;100397.09;4932758;29;20042;-68
2022/07/29 14:05:06;;;;;;;3.45;1.58;;;;;;;26.80;36.24;100399.41;4932639;29;20062;-70
2022/07/29 14:08:09;;;;;;;6.07;1.38;;;;;;;27.39;35.41;100391.19;4932428;29;20504;-68
2022/07/29 14:11:13;;;;;;;8.15;1.40;;;;;;;26.69;37.11;100383.84;4931655;29;20059;-70
2022/07/29 14:14:17;;;;;;;3.83;1.33;;;;;;;26.17;38.13;100389.13;4931481;29;20139;-68
2022/07/29 14:17:20;;;;;;;4.63;1.27;;;;;;;25.59;39.11;100392.53;4931385;29;20061;-68
2022/07/29 14:20:24;;;;;;;3.65;1.52;;;;;;;25.67;39.51;100401.34;4930794;29;20111;-72
2022/07/29 14:23:27;;;;;;;5.30;1.33;;;;;;;25.64;39.44;100396.34;4931286;29;20082;-70
2022/07/29 14:26:30;;;;;;;6.05;1.52;;;;;;;25.89;39.44;100406.88;4931402;29;20047;-68
2022/07/29 14:29:34;;;;;;;5.95;1.48;;;;;;;26.21;37.72;100403.81;4931306;29;20070;-70
2022/07/29 14:32:38;;;;;;;3.42;1.10;;;;;;;26.15;37.70;100403.72;4931226;29;20047;-68
2022/07/29 14:35:44;;;;;;;3.28;1.10;;;;;;;26.23;37.71;100400.97;4930278;29;20786;-71
2022/07/29 14:38:47;;;;;;;2.88;1.42;;;;;;;26.69;37.22;100397.25;4919730;29;20065;-73
2022/07/29 14:41:53;;;;;;;4.72;1.58;;;;;;;27.50;35.70;100398.69;4932259;29;20517;-72